LNI881 WAPF-WAPP
Flight info
| Callsign | LNI881 |
|---|---|
| Flight time | 0h 55m |
| Altitude | 32000 |
| Route | FOLOT W54 GOMBY |
| Aircraft | B739/M-SDE2E3FGHIRWXY/LB1 |
Departure
| Time | 2026-04-12 20:18 |
|---|---|
| Airport | Karel Sadsuitubun Airport (WAPF) |
Arrival
| Time | 2026-04-12 21:13 |
|---|---|
| Airport | Pattimura International Airport (WAPP) |
| Time | Latitude | Longitude | Altitude | Speed | Heading |
|---|---|---|---|---|---|
| 2026-04-12 19:55 | -5.75753 | 132.75986 | 61 ft | 0 kts | 43° |
| 2026-04-12 20:08 | -5.75752 | 132.75987 | 61 ft | 1 kts | 43° |
| 2026-04-12 20:08 | -5.75736 | 132.75991 | 71 ft | 3 kts | 351° |
| 2026-04-12 20:09 | -5.75740 | 132.75971 | 70 ft | 4 kts | 225° |
| 2026-04-12 20:09 | -5.75763 | 132.75951 | 68 ft | 5 kts | 206° |
| 2026-04-12 20:09 | -5.75800 | 132.75945 | 65 ft | 6 kts | 191° |
| 2026-04-12 20:09 | -5.75839 | 132.75915 | 69 ft | 5 kts | 223° |
| 2026-04-12 20:10 | -5.75842 | 132.75912 | 62 ft | 0 kts | 223° |
| 2026-04-12 20:13 | -5.75847 | 132.75907 | 73 ft | 2 kts | 223° |
| 2026-04-12 20:13 | -5.75868 | 132.75887 | 64 ft | 6 kts | 223° |
| 2026-04-12 20:13 | -5.75947 | 132.75912 | 63 ft | 7 kts | 133° |
| 2026-04-12 20:14 | -5.75983 | 132.75951 | 72 ft | 8 kts | 134° |
| 2026-04-12 20:14 | -5.76025 | 132.75995 | 72 ft | 10 kts | 133° |
| 2026-04-12 20:14 | -5.76076 | 132.76049 | 67 ft | 12 kts | 133° |
| 2026-04-12 20:14 | -5.76137 | 132.76114 | 71 ft | 14 kts | 133° |
| 2026-04-12 20:15 | -5.76201 | 132.76182 | 70 ft | 13 kts | 133° |
| 2026-04-12 20:15 | -5.76263 | 132.76247 | 73 ft | 13 kts | 133° |
| 2026-04-12 20:15 | -5.76324 | 132.76313 | 70 ft | 14 kts | 133° |
| 2026-04-12 20:15 | -5.76391 | 132.76385 | 68 ft | 14 kts | 133° |
| 2026-04-12 20:16 | -5.76459 | 132.76457 | 72 ft | 14 kts | 133° |
| 2026-04-12 20:16 | -5.76514 | 132.76519 | 74 ft | 10 kts | 122° |
| 2026-04-12 20:16 | -5.76540 | 132.76582 | 76 ft | 6 kts | 127° |
| 2026-04-12 20:16 | -5.76569 | 132.76574 | 68 ft | 6 kts | 283° |
| 2026-04-12 20:17 | -5.76543 | 132.76545 | 69 ft | 0 kts | 313° |
| 2026-04-12 20:17 | -5.76533 | 132.76533 | 77 ft | 17 kts | 313° |
| 2026-04-12 20:17 | -5.76266 | 132.76249 | 75 ft | 95 kts | 313° |
| 2026-04-12 20:18 | -5.75655 | 132.75597 | 75 ft | 159 kts | 313° |
| 2026-04-12 20:18 | -5.74814 | 132.74691 | 413 ft | 181 kts | 312° |
| 2026-04-12 20:18 | -5.73968 | 132.73710 | 1091 ft | 190 kts | 303° |
| 2026-04-12 20:18 | -5.73279 | 132.72581 | 1877 ft | 191 kts | 299° |
| 2026-04-12 20:19 | -5.72562 | 132.71379 | 2243 ft | 214 kts | 300° |
| 2026-04-12 20:19 | -5.71747 | 132.70032 | 2452 ft | 237 kts | 300° |
| 2026-04-12 20:19 | -5.70842 | 132.68566 | 2773 ft | 255 kts | 301° |
| 2026-04-12 20:19 | -5.69849 | 132.66984 | 3046 ft | 278 kts | 301° |
| 2026-04-12 20:20 | -5.68802 | 132.65340 | 3849 ft | 279 kts | 301° |
| 2026-04-12 20:20 | -5.67754 | 132.63705 | 4720 ft | 279 kts | 301° |
| 2026-04-12 20:20 | -5.66692 | 132.62060 | 5496 ft | 282 kts | 301° |
| 2026-04-12 20:20 | -5.65623 | 132.60408 | 6321 ft | 282 kts | 301° |
| 2026-04-12 20:21 | -5.64546 | 132.58745 | 7049 ft | 286 kts | 301° |
| 2026-04-12 20:21 | -5.63455 | 132.57063 | 7773 ft | 288 kts | 302° |
| 2026-04-12 20:21 | -5.62359 | 132.55376 | 8516 ft | 290 kts | 302° |
| 2026-04-12 20:21 | -5.61252 | 132.53674 | 9209 ft | 292 kts | 302° |
| 2026-04-12 20:22 | -5.60137 | 132.51961 | 9880 ft | 294 kts | 302° |
| 2026-04-12 20:22 | -5.59010 | 132.50229 | 10439 ft | 302 kts | 301° |
| 2026-04-12 20:22 | -5.57821 | 132.48400 | 10588 ft | 323 kts | 301° |
| 2026-04-12 20:22 | -5.56559 | 132.46459 | 10740 ft | 341 kts | 301° |
| 2026-04-12 20:23 | -5.55229 | 132.44416 | 10950 ft | 356 kts | 301° |
| 2026-04-12 20:23 | -5.53858 | 132.42313 | 11394 ft | 362 kts | 301° |
| 2026-04-12 20:23 | -5.52479 | 132.40198 | 12027 ft | 362 kts | 301° |
| 2026-04-12 20:23 | -5.51176 | 132.38045 | 12658 ft | 361 kts | 296° |
| 2026-04-12 20:24 | -5.50075 | 132.35765 | 13144 ft | 365 kts | 293° |
| 2026-04-12 20:24 | -5.49014 | 132.33433 | 13577 ft | 371 kts | 293° |
| 2026-04-12 20:24 | -5.47950 | 132.31066 | 14081 ft | 373 kts | 293° |
| 2026-04-12 20:24 | -5.46876 | 132.28685 | 14589 ft | 376 kts | 293° |
| 2026-04-12 20:25 | -5.45787 | 132.26289 | 15017 ft | 380 kts | 293° |
| 2026-04-12 20:25 | -5.44678 | 132.23871 | 15463 ft | 383 kts | 294° |
| 2026-04-12 20:25 | -5.43557 | 132.21435 | 15916 ft | 386 kts | 294° |
| 2026-04-12 20:25 | -5.42424 | 132.18982 | 16357 ft | 389 kts | 294° |
| 2026-04-12 20:26 | -5.41279 | 132.16509 | 16786 ft | 392 kts | 294° |
| 2026-04-12 20:26 | -5.40126 | 132.14022 | 17184 ft | 395 kts | 294° |
| 2026-04-12 20:26 | -5.38964 | 132.11514 | 17567 ft | 398 kts | 294° |
| 2026-04-12 20:26 | -5.37809 | 132.09021 | 17969 ft | 400 kts | 294° |
| 2026-04-12 20:27 | -5.36631 | 132.06479 | 18348 ft | 403 kts | 294° |
| 2026-04-12 20:27 | -5.35442 | 132.03918 | 18716 ft | 406 kts | 294° |
| 2026-04-12 20:27 | -5.34248 | 132.01342 | 19084 ft | 408 kts | 294° |
| 2026-04-12 20:27 | -5.33045 | 131.98750 | 19440 ft | 411 kts | 294° |
| 2026-04-12 20:28 | -5.31837 | 131.96145 | 19786 ft | 413 kts | 294° |
| 2026-04-12 20:28 | -5.30622 | 131.93527 | 20131 ft | 415 kts | 294° |
| 2026-04-12 20:28 | -5.29402 | 131.90896 | 20492 ft | 417 kts | 294° |
| 2026-04-12 20:28 | -5.28175 | 131.88251 | 20792 ft | 420 kts | 294° |
| 2026-04-12 20:29 | -5.26941 | 131.85592 | 21098 ft | 422 kts | 294° |
| 2026-04-12 20:29 | -5.25699 | 131.82915 | 21417 ft | 423 kts | 294° |
| 2026-04-12 20:29 | -5.24858 | 131.81103 | 21627 ft | 425 kts | 294° |
| 2026-04-12 20:29 | -5.23608 | 131.78411 | 21930 ft | 426 kts | 294° |
| 2026-04-12 20:30 | -5.22352 | 131.75707 | 22207 ft | 428 kts | 293° |
| 2026-04-12 20:30 | -5.21095 | 131.72997 | 22483 ft | 430 kts | 293° |
| 2026-04-12 20:30 | -5.19829 | 131.70272 | 22737 ft | 433 kts | 293° |
| 2026-04-12 20:30 | -5.18556 | 131.67534 | 23035 ft | 434 kts | 293° |
| 2026-04-12 20:31 | -5.17281 | 131.64789 | 23295 ft | 435 kts | 293° |
| 2026-04-12 20:31 | -5.16001 | 131.62031 | 23531 ft | 437 kts | 293° |
| 2026-04-12 20:31 | -5.14715 | 131.59261 | 23770 ft | 439 kts | 293° |
| 2026-04-12 20:31 | -5.13442 | 131.56523 | 24018 ft | 440 kts | 293° |
| 2026-04-12 20:32 | -5.12150 | 131.53736 | 24242 ft | 441 kts | 293° |
| 2026-04-12 20:32 | -5.10859 | 131.50942 | 24468 ft | 443 kts | 293° |
| 2026-04-12 20:32 | -5.09565 | 131.48135 | 24701 ft | 444 kts | 293° |
| 2026-04-12 20:32 | -5.08269 | 131.45321 | 24924 ft | 445 kts | 293° |
| 2026-04-12 20:33 | -5.06970 | 131.42497 | 25138 ft | 446 kts | 293° |
| 2026-04-12 20:33 | -5.05667 | 131.39668 | 25315 ft | 448 kts | 293° |
| 2026-04-12 20:33 | -5.04340 | 131.36793 | 25516 ft | 449 kts | 293° |
| 2026-04-12 20:33 | -5.03043 | 131.33981 | 25725 ft | 450 kts | 293° |
| 2026-04-12 20:34 | -5.01726 | 131.31129 | 25925 ft | 451 kts | 293° |
| 2026-04-12 20:34 | -5.00409 | 131.28273 | 26111 ft | 453 kts | 293° |
| 2026-04-12 20:34 | -4.99084 | 131.25402 | 26307 ft | 453 kts | 293° |
| 2026-04-12 20:34 | -4.97757 | 131.22529 | 26495 ft | 455 kts | 293° |
| 2026-04-12 20:35 | -4.96428 | 131.19651 | 26675 ft | 456 kts | 293° |
| 2026-04-12 20:35 | -4.95095 | 131.16763 | 26861 ft | 457 kts | 293° |
| 2026-04-12 20:35 | -4.93758 | 131.13868 | 27022 ft | 458 kts | 294° |
| 2026-04-12 20:35 | -4.92416 | 131.10964 | 27164 ft | 460 kts | 294° |
| 2026-04-12 20:36 | -4.91072 | 131.08053 | 27329 ft | 460 kts | 294° |
| 2026-04-12 20:36 | -4.89725 | 131.05138 | 27487 ft | 461 kts | 294° |
| 2026-04-12 20:36 | -4.88375 | 131.02216 | 27648 ft | 462 kts | 294° |
| 2026-04-12 20:36 | -4.87022 | 130.99290 | 27797 ft | 463 kts | 294° |
| 2026-04-12 20:37 | -4.85665 | 130.96357 | 27943 ft | 464 kts | 294° |
| 2026-04-12 20:37 | -4.84306 | 130.93415 | 28095 ft | 465 kts | 294° |
| 2026-04-12 20:37 | -4.82945 | 130.90471 | 28240 ft | 466 kts | 294° |
| 2026-04-12 20:37 | -4.81582 | 130.87521 | 28390 ft | 467 kts | 294° |
| 2026-04-12 20:38 | -4.80215 | 130.84563 | 28603 ft | 466 kts | 294° |
| 2026-04-12 20:38 | -4.78854 | 130.81620 | 28851 ft | 465 kts | 294° |
| 2026-04-12 20:38 | -4.77494 | 130.78682 | 29080 ft | 464 kts | 294° |
| 2026-04-12 20:38 | -4.76137 | 130.75748 | 29268 ft | 464 kts | 294° |
| 2026-04-12 20:39 | -4.74781 | 130.72816 | 29480 ft | 464 kts | 294° |
| 2026-04-12 20:39 | -4.73423 | 130.69880 | 29701 ft | 463 kts | 294° |
| 2026-04-12 20:39 | -4.72068 | 130.66952 | 29939 ft | 463 kts | 294° |
| 2026-04-12 20:39 | -4.70734 | 130.64068 | 30195 ft | 462 kts | 294° |
| 2026-04-12 20:40 | -4.69382 | 130.61149 | 30442 ft | 461 kts | 294° |
| 2026-04-12 20:40 | -4.68017 | 130.58201 | 30709 ft | 460 kts | 294° |
| 2026-04-12 20:40 | -4.66689 | 130.55333 | 30996 ft | 459 kts | 294° |
| 2026-04-12 20:40 | -4.65348 | 130.52437 | 31264 ft | 458 kts | 294° |
| 2026-04-12 20:41 | -4.64006 | 130.49540 | 31518 ft | 458 kts | 294° |
| 2026-04-12 20:41 | -4.62666 | 130.46649 | 31788 ft | 457 kts | 294° |
| 2026-04-12 20:41 | -4.61328 | 130.43759 | 31883 ft | 458 kts | 294° |
| 2026-04-12 20:42 | -4.58648 | 130.37974 | 31881 ft | 458 kts | 294° |
| 2026-04-12 20:42 | -4.55973 | 130.32199 | 31890 ft | 455 kts | 294° |
| 2026-04-12 20:43 | -4.53311 | 130.26451 | 31891 ft | 454 kts | 294° |
| 2026-04-12 20:43 | -4.50651 | 130.20719 | 31889 ft | 453 kts | 294° |
| 2026-04-12 20:44 | -4.48000 | 130.15005 | 31891 ft | 452 kts | 294° |
| 2026-04-12 20:44 | -4.45348 | 130.09290 | 31889 ft | 452 kts | 294° |
| 2026-04-12 20:45 | -4.42694 | 130.03568 | 31892 ft | 453 kts | 294° |
| 2026-04-12 20:45 | -4.40034 | 129.97835 | 31892 ft | 454 kts | 294° |
| 2026-04-12 20:46 | -4.37366 | 129.92086 | 31888 ft | 455 kts | 294° |
| 2026-04-12 20:46 | -4.34695 | 129.86332 | 31891 ft | 456 kts | 294° |
| 2026-04-12 20:47 | -4.32018 | 129.80568 | 31888 ft | 456 kts | 294° |
| 2026-04-12 20:47 | -4.29343 | 129.74809 | 31887 ft | 456 kts | 294° |
| 2026-04-12 20:47 | -4.28293 | 129.71817 | 31869 ft | 454 kts | 279° |
| 2026-04-12 20:48 | -4.28104 | 129.68681 | 31893 ft | 452 kts | 265° |
| 2026-04-12 20:48 | -4.28826 | 129.62460 | 31890 ft | 452 kts | 263° |
| 2026-04-12 20:49 | -4.29620 | 129.56164 | 31885 ft | 453 kts | 263° |
| 2026-04-12 20:49 | -4.30363 | 129.49894 | 31891 ft | 453 kts | 263° |
| 2026-04-12 20:50 | -4.31076 | 129.43619 | 31889 ft | 454 kts | 263° |
| 2026-04-12 20:50 | -4.31779 | 129.37378 | 31885 ft | 454 kts | 263° |
| 2026-04-12 20:51 | -4.32485 | 129.31092 | 31889 ft | 454 kts | 263° |
| 2026-04-12 20:51 | -4.33187 | 129.24842 | 31650 ft | 447 kts | 263° |
| 2026-04-12 20:51 | -4.33533 | 129.21767 | 31251 ft | 441 kts | 263° |
| 2026-04-12 20:52 | -4.33876 | 129.18728 | 30746 ft | 437 kts | 263° |
| 2026-04-12 20:52 | -4.34213 | 129.15719 | 30241 ft | 432 kts | 263° |
| 2026-04-12 20:52 | -4.34548 | 129.12737 | 29734 ft | 429 kts | 263° |
| 2026-04-12 20:52 | -4.34880 | 129.09785 | 29236 ft | 425 kts | 264° |
| 2026-04-12 20:53 | -4.35209 | 129.06856 | 28733 ft | 421 kts | 263° |
| 2026-04-12 20:53 | -4.35534 | 129.03958 | 28232 ft | 417 kts | 263° |
| 2026-04-12 20:53 | -4.35858 | 129.01076 | 27724 ft | 414 kts | 263° |
| 2026-04-12 20:53 | -4.36178 | 128.98225 | 27237 ft | 410 kts | 263° |
| 2026-04-12 20:54 | -4.36495 | 128.95396 | 26738 ft | 407 kts | 263° |
| 2026-04-12 20:54 | -4.36810 | 128.92587 | 26256 ft | 403 kts | 263° |
| 2026-04-12 20:54 | -4.37121 | 128.89809 | 25771 ft | 400 kts | 263° |
| 2026-04-12 20:54 | -4.37430 | 128.87047 | 25287 ft | 397 kts | 263° |
| 2026-04-12 20:55 | -4.37736 | 128.84312 | 24810 ft | 394 kts | 263° |
| 2026-04-12 20:55 | -4.38041 | 128.81593 | 24334 ft | 390 kts | 263° |
| 2026-04-12 20:55 | -4.38341 | 128.78903 | 23862 ft | 388 kts | 263° |
| 2026-04-12 20:55 | -4.38641 | 128.76225 | 23397 ft | 385 kts | 263° |
| 2026-04-12 20:56 | -4.38938 | 128.73573 | 22925 ft | 382 kts | 263° |
| 2026-04-12 20:56 | -4.39232 | 128.70943 | 22457 ft | 379 kts | 263° |
| 2026-04-12 20:56 | -4.39524 | 128.68334 | 22002 ft | 376 kts | 263° |
| 2026-04-12 20:56 | -4.39813 | 128.65738 | 21544 ft | 373 kts | 263° |
| 2026-04-12 20:57 | -4.40101 | 128.63162 | 21094 ft | 370 kts | 263° |
| 2026-04-12 20:57 | -4.40387 | 128.60608 | 20648 ft | 368 kts | 263° |
| 2026-04-12 20:57 | -4.40670 | 128.58071 | 20199 ft | 365 kts | 263° |
| 2026-04-12 20:57 | -4.40951 | 128.55550 | 19751 ft | 363 kts | 264° |
| 2026-04-12 20:58 | -4.41230 | 128.53048 | 19301 ft | 360 kts | 264° |
| 2026-04-12 20:58 | -4.41508 | 128.50559 | 18856 ft | 358 kts | 264° |
| 2026-04-12 20:58 | -4.41783 | 128.48087 | 18409 ft | 356 kts | 264° |
| 2026-04-12 20:58 | -4.42058 | 128.45630 | 17958 ft | 354 kts | 264° |
| 2026-04-12 20:59 | -4.42330 | 128.43186 | 17517 ft | 352 kts | 264° |
| 2026-04-12 20:59 | -4.42600 | 128.40755 | 17070 ft | 350 kts | 264° |
| 2026-04-12 20:59 | -4.42869 | 128.38339 | 16633 ft | 348 kts | 264° |
| 2026-04-12 20:59 | -4.43136 | 128.35941 | 16199 ft | 346 kts | 264° |
| 2026-04-12 21:00 | -4.43401 | 128.33553 | 15765 ft | 344 kts | 264° |
| 2026-04-12 21:00 | -4.43619 | 128.31207 | 15334 ft | 341 kts | 270° |
| 2026-04-12 21:00 | -4.43166 | 128.28894 | 14898 ft | 340 kts | 292° |
| 2026-04-12 21:00 | -4.41936 | 128.26886 | 14503 ft | 339 kts | 309° |
| 2026-04-12 21:01 | -4.40159 | 128.25346 | 14099 ft | 339 kts | 325° |
| 2026-04-12 21:01 | -4.38146 | 128.24139 | 13702 ft | 337 kts | 328° |
| 2026-04-12 21:01 | -4.36109 | 128.22994 | 13302 ft | 335 kts | 329° |
| 2026-04-12 21:01 | -4.34079 | 128.21864 | 12885 ft | 333 kts | 328° |
| 2026-04-12 21:02 | -4.32063 | 128.20732 | 12478 ft | 331 kts | 328° |
| 2026-04-12 21:02 | -4.30061 | 128.19598 | 12063 ft | 329 kts | 328° |
| 2026-04-12 21:02 | -4.28077 | 128.18464 | 11651 ft | 328 kts | 328° |
| 2026-04-12 21:02 | -4.26101 | 128.17331 | 11224 ft | 327 kts | 328° |
| 2026-04-12 21:03 | -4.24133 | 128.16199 | 10812 ft | 326 kts | 328° |
| 2026-04-12 21:03 | -4.22176 | 128.15073 | 10481 ft | 322 kts | 328° |
| 2026-04-12 21:03 | -4.20262 | 128.13971 | 10343 ft | 312 kts | 329° |
| 2026-04-12 21:03 | -4.18408 | 128.12904 | 10200 ft | 302 kts | 328° |
| 2026-04-12 21:04 | -4.16612 | 128.11870 | 10081 ft | 293 kts | 328° |
| 2026-04-12 21:04 | -4.14874 | 128.10864 | 9899 ft | 286 kts | 327° |
| 2026-04-12 21:04 | -4.13250 | 128.09716 | 9541 ft | 285 kts | 321° |
| 2026-04-12 21:04 | -4.11698 | 128.08489 | 9188 ft | 285 kts | 320° |
| 2026-04-12 21:05 | -4.10154 | 128.07250 | 8838 ft | 285 kts | 320° |
| 2026-04-12 21:05 | -4.08604 | 128.06014 | 8486 ft | 284 kts | 321° |
| 2026-04-12 21:05 | -4.07054 | 128.04789 | 8134 ft | 284 kts | 321° |
| 2026-04-12 21:05 | -4.05497 | 128.03564 | 7758 ft | 285 kts | 321° |
| 2026-04-12 21:06 | -4.03932 | 128.02340 | 7399 ft | 285 kts | 321° |
| 2026-04-12 21:06 | -4.02364 | 128.01116 | 7037 ft | 286 kts | 321° |
| 2026-04-12 21:06 | -4.00793 | 127.99893 | 6671 ft | 286 kts | 321° |
| 2026-04-12 21:06 | -3.99207 | 127.98658 | 5958 ft | 293 kts | 321° |
| 2026-04-12 21:07 | -3.97582 | 127.97395 | 5347 ft | 295 kts | 321° |
| 2026-04-12 21:07 | -3.96001 | 127.96165 | 5148 ft | 280 kts | 322° |
| 2026-04-12 21:07 | -3.94509 | 127.95006 | 4967 ft | 264 kts | 321° |
| 2026-04-12 21:07 | -3.93090 | 127.93907 | 4829 ft | 251 kts | 321° |
| 2026-04-12 21:08 | -3.91753 | 127.92868 | 4735 ft | 236 kts | 321° |
| 2026-04-12 21:08 | -3.90403 | 127.92032 | 4636 ft | 222 kts | 345° |
| 2026-04-12 21:08 | -3.88908 | 127.92122 | 4569 ft | 220 kts | 27° |
| 2026-04-12 21:08 | -3.87608 | 127.92953 | 4307 ft | 223 kts | 37° |
| 2026-04-12 21:09 | -3.86360 | 127.93864 | 4002 ft | 219 kts | 37° |
| 2026-04-12 21:09 | -3.85195 | 127.94815 | 3730 ft | 212 kts | 45° |
| 2026-04-12 21:09 | -3.84167 | 127.95837 | 3432 ft | 205 kts | 47° |
| 2026-04-12 21:09 | -3.83180 | 127.96837 | 3164 ft | 198 kts | 47° |
| 2026-04-12 21:10 | -3.82222 | 127.97793 | 2897 ft | 191 kts | 47° |
| 2026-04-12 21:10 | -3.81288 | 127.98727 | 2666 ft | 193 kts | 46° |
| 2026-04-12 21:10 | -3.80340 | 127.99673 | 2406 ft | 185 kts | 46° |
| 2026-04-12 21:10 | -3.79443 | 128.00567 | 2181 ft | 181 kts | 45° |
| 2026-04-12 21:11 | -3.78576 | 128.01431 | 1931 ft | 172 kts | 45° |
| 2026-04-12 21:11 | -3.77755 | 128.02250 | 1720 ft | 168 kts | 44° |
| 2026-04-12 21:11 | -3.76935 | 128.03069 | 1484 ft | 165 kts | 44° |
| 2026-04-12 21:11 | -3.76120 | 128.03882 | 1277 ft | 166 kts | 44° |
| 2026-04-12 21:12 | -3.75303 | 128.04695 | 1056 ft | 167 kts | 44° |
| 2026-04-12 21:12 | -3.74479 | 128.05520 | 843 ft | 169 kts | 44° |
| 2026-04-12 21:12 | -3.73652 | 128.06338 | 626 ft | 165 kts | 44° |
| 2026-04-12 21:12 | -3.72847 | 128.07153 | 375 ft | 165 kts | 44° |
| 2026-04-12 21:13 | -3.72035 | 128.07958 | 134 ft | 163 kts | 44° |
| 2026-04-12 21:13 | -3.71259 | 128.08732 | 35 ft | 146 kts | 45° |
| 2026-04-12 21:13 | -3.70664 | 128.09328 | 35 ft | 91 kts | 45° |
| 2026-04-12 21:13 | -3.70413 | 128.09579 | 33 ft | 20 kts | 44° |
| 2026-04-12 21:14 | -3.70313 | 128.09674 | 32 ft | 20 kts | 38° |
| 2026-04-12 21:14 | -3.70239 | 128.09725 | 33 ft | 9 kts | 83° |
| 2026-04-12 21:14 | -3.70284 | 128.09711 | 32 ft | 10 kts | 233° |
| 2026-04-12 21:14 | -3.70337 | 128.09655 | 32 ft | 13 kts | 225° |
| 2026-04-12 21:15 | -3.70405 | 128.09587 | 32 ft | 15 kts | 225° |
| 2026-04-12 21:15 | -3.70455 | 128.09536 | 34 ft | 16 kts | 225° |
| 2026-04-12 21:15 | -3.70538 | 128.09454 | 34 ft | 18 kts | 225° |
| 2026-04-12 21:15 | -3.70631 | 128.09361 | 34 ft | 20 kts | 225° |
| 2026-04-12 21:16 | -3.70727 | 128.09265 | 36 ft | 19 kts | 225° |
| 2026-04-12 21:16 | -3.70791 | 128.09189 | 35 ft | 11 kts | 255° |
| 2026-04-12 21:16 | -3.70758 | 128.09126 | 34 ft | 11 kts | 315° |
| 2026-04-12 21:16 | -3.70704 | 128.09063 | 35 ft | 13 kts | 297° |
| 2026-04-12 21:17 | -3.70696 | 128.08965 | 35 ft | 16 kts | 270° |
| 2026-04-12 21:17 | -3.70693 | 128.08874 | 35 ft | 8 kts | 287° |
| 2026-04-12 21:17 | -3.70649 | 128.08857 | 35 ft | 4 kts | 359° |
| 2026-04-12 21:17 | -3.70634 | 128.08857 | 35 ft | 0 kts | 360° |